createdAt,value
2019-06-27T00:01:36.015Z,28.10
2019-06-27T00:04:06.684Z,28.00
2019-06-27T00:06:37.076Z,28.00
2019-06-27T00:09:10.600Z,27.90
2019-06-27T00:11:40.760Z,27.90
2019-06-27T00:14:11.597Z,27.80
2019-06-27T00:16:42.023Z,27.80
2019-06-27T00:19:12.773Z,27.70
2019-06-27T00:21:43.134Z,27.70
2019-06-27T00:24:13.587Z,27.80
2019-06-27T00:26:56.720Z,27.80
2019-06-27T00:29:16.096Z,27.80
2019-06-27T00:31:47.172Z,27.90
2019-06-27T00:34:17.565Z,27.80
2019-06-27T00:36:48.038Z,27.70
2019-06-27T00:39:18.768Z,27.70
2019-06-27T00:41:49.467Z,27.70
2019-06-27T00:44:19.741Z,27.60
2019-06-27T00:46:50.137Z,27.50
2019-06-27T00:49:20.376Z,27.40
2019-06-27T00:51:50.846Z,27.20
2019-06-27T00:54:21.161Z,27.30
2019-06-27T00:56:51.596Z,27.20
2019-06-27T00:59:21.861Z,27.20
2019-06-27T01:01:52.227Z,27.20
2019-06-27T01:04:22.455Z,27.30
2019-06-27T01:06:53.600Z,27.20
2019-06-27T01:09:23.853Z,27.10
2019-06-27T01:11:54.198Z,26.90
2019-06-27T01:14:24.509Z,26.70
2019-06-27T01:16:54.825Z,26.50
2019-06-27T01:19:25.195Z,26.30
2019-06-27T01:21:55.524Z,26.20
2019-06-27T01:24:25.663Z,26.10
2019-06-27T01:26:56.017Z,25.90
2019-06-27T01:29:26.582Z,25.70
2019-06-27T01:31:56.863Z,25.50
2019-06-27T01:34:27.058Z,25.40
2019-06-27T01:36:57.649Z,25.20
2019-06-27T01:39:27.764Z,25.10
2019-06-27T01:41:58.571Z,25.00
2019-06-27T01:44:43.826Z,25.00
2019-06-27T01:47:14.518Z,24.90
2019-06-27T01:49:44.944Z,24.80
2019-06-27T01:52:15.464Z,24.70
2019-06-27T01:54:45.613Z,24.60
2019-06-27T01:57:18.416Z,24.50
2019-06-27T01:59:48.432Z,24.40
2019-06-27T02:02:19.056Z,24.40
2019-06-27T02:04:50.680Z,24.30
2019-06-27T02:07:21.056Z,24.30
2019-06-27T02:09:51.341Z,24.30
2019-06-27T02:12:21.755Z,24.40
2019-06-27T02:14:52.061Z,24.50
2019-06-27T02:17:22.251Z,24.60
2019-06-27T02:19:52.635Z,24.60
2019-06-27T02:22:22.989Z,24.60
2019-06-27T02:24:53.439Z,24.70
2019-06-27T02:27:24.176Z,24.70
2019-06-27T02:29:54.479Z,24.60
2019-06-27T02:32:25.420Z,24.70
2019-06-27T02:34:55.875Z,24.60
2019-06-27T02:37:26.238Z,24.60
2019-06-27T02:39:56.469Z,24.60
2019-06-27T02:42:26.824Z,24.60
2019-06-27T02:44:57.299Z,24.60
2019-06-27T02:47:27.648Z,24.60
2019-06-27T02:49:58.241Z,24.60
2019-06-27T02:52:28.758Z,24.70
2019-06-27T02:54:59.293Z,24.70
2019-06-27T02:57:29.713Z,24.80
2019-06-27T03:00:00.203Z,24.80
2019-06-27T03:02:30.560Z,24.80
2019-06-27T03:05:01.016Z,24.80
2019-06-27T03:07:31.615Z,24.80
2019-06-27T03:10:02.496Z,24.90
2019-06-27T03:12:32.896Z,24.90
2019-06-27T03:15:03.281Z,25.00
2019-06-27T03:17:34.009Z,25.00
2019-06-27T03:20:05.007Z,25.10
2019-06-27T03:22:35.815Z,25.20
2019-06-27T03:25:06.360Z,25.20
2019-06-27T03:27:36.784Z,25.30
2019-06-27T03:30:07.442Z,25.50
2019-06-27T03:32:38.710Z,25.60
2019-06-27T03:35:09.298Z,25.70
2019-06-27T03:37:39.545Z,25.70
2019-06-27T03:40:10.476Z,25.80
2019-06-27T03:42:41.082Z,25.90
2019-06-27T03:45:15.338Z,25.90
2019-06-27T03:47:43.783Z,26.00
2019-06-27T03:50:14.305Z,26.00
2019-06-27T03:52:46.021Z,26.00
2019-06-27T03:55:16.723Z,26.00
2019-06-27T03:57:47.046Z,26.10
2019-06-27T04:00:24.642Z,26.10
2019-06-27T04:02:55.204Z,26.10
2019-06-27T04:05:26.896Z,26.10
2019-06-27T04:07:57.891Z,26.10
2019-06-27T04:10:29.049Z,26.10
2019-06-27T04:12:59.860Z,26.10
2019-06-27T04:15:30.189Z,26.10
2019-06-27T04:18:00.483Z,26.20
2019-06-27T04:20:30.935Z,26.20
2019-06-27T04:23:01.300Z,26.20
2019-06-27T04:25:31.850Z,26.20
2019-06-27T04:28:02.138Z,26.20
2019-06-27T04:30:32.443Z,26.20
2019-06-27T04:33:03.420Z,26.20
2019-06-27T04:35:34.281Z,26.20
2019-06-27T04:38:04.473Z,26.10
2019-06-27T04:40:35.403Z,26.00
2019-06-27T04:45:49.033Z,25.90
2019-06-27T04:48:19.811Z,25.80
2019-06-27T04:50:50.041Z,25.80
2019-06-27T04:53:27.726Z,25.80
2019-06-27T04:55:58.187Z,25.70
2019-06-27T04:58:31.486Z,25.60
2019-06-27T05:01:23.025Z,25.50
2019-06-27T05:03:47.264Z,25.50
2019-06-27T05:06:17.995Z,25.50
2019-06-27T05:08:48.357Z,25.50
2019-06-27T05:11:18.601Z,25.50
2019-06-27T05:13:48.948Z,25.50
2019-06-27T05:16:19.237Z,25.60
2019-06-27T05:18:49.745Z,25.60
2019-06-27T05:21:20.017Z,25.70
2019-06-27T05:23:50.325Z,25.70
2019-06-27T05:26:20.515Z,25.70
2019-06-27T05:28:50.727Z,25.80
2019-06-27T05:31:21.408Z,25.80
2019-06-27T05:33:51.602Z,25.80
2019-06-27T05:36:21.794Z,25.80
2019-06-27T05:38:52.142Z,26.00
2019-06-27T05:41:23.009Z,26.10
2019-06-27T05:43:54.031Z,26.20
2019-06-27T05:46:25.377Z,26.30
2019-06-27T05:48:55.763Z,26.50
2019-06-27T05:51:26.078Z,26.60
2019-06-27T05:53:56.454Z,26.60
2019-06-27T05:56:26.939Z,26.70
2019-06-27T05:58:57.727Z,26.80
2019-06-27T06:01:28.145Z,26.80
2019-06-27T06:03:58.596Z,26.70
2019-06-27T06:06:29.055Z,26.50
2019-06-27T06:08:59.447Z,26.50
2019-06-27T06:11:29.779Z,26.40
2019-06-27T06:14:00.555Z,26.30
2019-06-27T06:16:30.705Z,26.20
2019-06-27T06:19:01.195Z,26.20
2019-06-27T06:21:32.819Z,26.10
2019-06-27T06:24:02.975Z,26.00
2019-06-27T06:26:33.694Z,26.10
2019-06-27T06:29:04.048Z,26.10
2019-06-27T06:31:34.347Z,26.20
2019-06-27T06:34:04.899Z,26.20
2019-06-27T06:36:35.225Z,26.20
2019-06-27T06:39:06.449Z,26.30
2019-06-27T06:41:37.196Z,26.40
2019-06-27T06:44:07.849Z,26.50
2019-06-27T06:46:38.213Z,26.60
2019-06-27T06:49:08.766Z,26.70
2019-06-27T06:51:39.545Z,26.70
2019-06-27T06:54:09.922Z,26.80
2019-06-27T06:56:40.347Z,27.00
2019-06-27T06:59:10.706Z,27.10
2019-06-27T07:01:41.293Z,27.10
2019-06-27T07:04:11.583Z,27.20
2019-06-27T07:06:42.191Z,27.10
2019-06-27T07:09:12.441Z,27.10
2019-06-27T07:11:42.963Z,27.10
2019-06-27T07:14:13.346Z,27.10
2019-06-27T07:16:43.766Z,26.90
2019-06-27T07:19:14.309Z,26.90
2019-06-27T07:21:45.501Z,26.90
2019-06-27T07:24:16.244Z,26.90
2019-06-27T07:26:46.637Z,26.90
2019-06-27T07:29:17.009Z,26.80
2019-06-27T07:31:47.689Z,26.80
2019-06-27T07:34:19.545Z,26.80
2019-06-27T07:36:50.195Z,26.80
2019-06-27T07:39:20.601Z,26.70
2019-06-27T07:41:50.954Z,26.70
2019-06-27T07:44:21.307Z,26.60
2019-06-27T07:46:51.628Z,26.60
2019-06-27T07:49:22.050Z,26.60
2019-06-27T07:51:53.013Z,26.60
2019-06-27T07:54:23.095Z,26.70
2019-06-27T07:56:53.675Z,26.70
2019-06-27T07:59:24.415Z,26.80
2019-06-27T08:01:57.416Z,26.90
2019-06-27T08:04:27.993Z,27.10
2019-06-27T08:06:58.328Z,27.30
2019-06-27T08:09:30.138Z,27.40
2019-06-27T08:12:00.314Z,27.50
2019-06-27T08:14:30.887Z,27.60
2019-06-27T08:17:01.867Z,27.60
2019-06-27T08:19:34.365Z,27.70
2019-06-27T08:22:04.898Z,27.80
2019-06-27T08:24:35.383Z,27.80
2019-06-27T08:27:05.745Z,27.90
2019-06-27T08:29:36.585Z,27.90
2019-06-27T08:32:07.106Z,27.90
2019-06-27T08:34:37.415Z,27.90
2019-06-27T08:37:07.758Z,27.90
2019-06-27T08:39:39.410Z,28.00
2019-06-27T08:42:10.144Z,28.00
2019-06-27T08:44:41.092Z,28.00
2019-06-27T08:47:11.391Z,28.00
2019-06-27T08:49:41.594Z,28.00
2019-06-27T08:52:12.174Z,28.00
2019-06-27T08:54:46.563Z,28.00
2019-06-27T08:57:16.817Z,28.10
2019-06-27T08:59:47.766Z,28.10
2019-06-27T09:02:18.737Z,28.10
2019-06-27T09:04:49.359Z,28.20
2019-06-27T09:07:19.825Z,28.30
2019-06-27T09:09:50.290Z,28.40
2019-06-27T09:12:20.754Z,28.60
2019-06-27T09:14:50.891Z,28.70
2019-06-27T09:17:21.172Z,28.90
2019-06-27T09:19:51.477Z,29.00
2019-06-27T09:22:22.031Z,29.10
2019-06-27T09:24:52.866Z,29.20
2019-06-27T09:27:23.654Z,29.40
2019-06-27T09:29:53.981Z,29.60
2019-06-27T09:32:26.259Z,29.80
2019-06-27T09:34:56.592Z,30.00
2019-06-27T09:37:27.470Z,30.30
2019-06-27T09:39:57.768Z,30.60
2019-06-27T09:42:28.210Z,30.80
2019-06-27T09:44:58.569Z,31.00
2019-06-27T09:47:28.995Z,31.20
2019-06-27T09:49:59.361Z,31.30
2019-06-27T09:52:29.715Z,31.50
2019-06-27T09:55:00.268Z,31.50
2019-06-27T09:57:30.638Z,31.40
2019-06-27T10:00:01.168Z,31.40
2019-06-27T10:02:41.150Z,31.30
2019-06-27T10:05:03.870Z,31.30
2019-06-27T10:07:34.747Z,31.30
2019-06-27T10:10:06.488Z,31.40
2019-06-27T10:12:42.174Z,31.40
2019-06-27T10:15:09.161Z,31.50
2019-06-27T10:17:39.490Z,31.60
2019-06-27T10:20:10.281Z,31.70
2019-06-27T10:22:40.907Z,31.70
2019-06-27T10:25:11.344Z,31.90
2019-06-27T10:27:41.707Z,32.00
2019-06-27T10:30:13.723Z,32.10
2019-06-27T10:32:57.598Z,32.20
2019-06-27T10:35:16.487Z,32.20
2019-06-27T10:37:46.994Z,32.30
2019-06-27T10:40:17.569Z,32.40
2019-06-27T10:42:47.932Z,32.40
2019-06-27T10:45:18.325Z,32.30
2019-06-27T10:47:49.182Z,32.20
2019-06-27T10:50:19.776Z,32.10
2019-06-27T10:52:50.165Z,32.10
2019-06-27T10:55:20.459Z,32.10
2019-06-27T10:57:50.745Z,32.10
2019-06-27T11:00:21.188Z,32.20
2019-06-27T11:02:52.021Z,32.10
2019-06-27T11:05:23.251Z,32.10
2019-06-27T11:07:53.544Z,32.00
2019-06-27T11:10:24.053Z,31.80
2019-06-27T11:12:54.488Z,31.80
2019-06-27T11:15:25.158Z,31.90
2019-06-27T11:17:55.479Z,32.00
2019-06-27T11:20:25.686Z,32.10
2019-06-27T11:22:55.993Z,32.20
2019-06-27T11:25:26.601Z,32.10
2019-06-27T11:27:56.780Z,32.00
2019-06-27T11:30:27.262Z,31.90
2019-06-27T11:32:57.460Z,31.60
2019-06-27T11:35:28.551Z,31.50
2019-06-27T11:37:58.750Z,31.40
2019-06-27T11:40:29.598Z,31.40
2019-06-27T11:43:00.006Z,31.40
2019-06-27T11:45:30.900Z,31.50
2019-06-27T11:48:01.072Z,31.50
2019-06-27T11:50:31.614Z,31.60
2019-06-27T11:53:02.114Z,31.70
2019-06-27T11:55:33.026Z,31.60
2019-06-27T11:58:03.136Z,31.30
2019-06-27T12:00:33.531Z,31.10
2019-06-27T12:03:04.076Z,31.20
2019-06-27T12:05:34.523Z,31.40
2019-06-27T12:08:05.536Z,31.60
2019-06-27T12:10:36.017Z,31.50
2019-06-27T12:13:06.346Z,31.50
2019-06-27T12:15:36.726Z,31.40
2019-06-27T12:18:06.871Z,31.30
2019-06-27T12:20:37.124Z,31.30
2019-06-27T12:23:07.877Z,31.40
2019-06-27T12:25:38.429Z,31.50
2019-06-27T12:28:09.048Z,31.40
2019-06-27T12:30:39.314Z,31.30
2019-06-27T12:33:09.641Z,31.30
2019-06-27T12:35:39.897Z,31.10
2019-06-27T12:38:11.601Z,31.00
2019-06-27T12:40:42.570Z,30.80
2019-06-27T12:43:14.575Z,30.70
2019-06-27T12:45:46.788Z,30.60
2019-06-27T12:48:17.247Z,30.30
2019-06-27T12:50:48.055Z,30.00
2019-06-27T12:53:18.468Z,29.90
2019-06-27T12:55:48.854Z,29.80
2019-06-27T12:58:19.076Z,29.80
2019-06-27T13:00:49.317Z,29.70
2019-06-27T13:03:20.800Z,29.60
2019-06-27T13:05:50.981Z,29.50
2019-06-27T13:08:21.646Z,29.30
2019-06-27T13:10:52.235Z,29.20
2019-06-27T13:13:22.525Z,29.10
2019-06-27T13:15:52.896Z,29.20
2019-06-27T13:18:23.409Z,29.30
2019-06-27T13:20:58.328Z,29.30
2019-06-27T13:23:26.382Z,29.10
2019-06-27T13:25:56.704Z,29.10
2019-06-27T13:28:27.647Z,29.10
2019-06-27T13:30:57.885Z,29.30
2019-06-27T13:33:29.658Z,29.40
2019-06-27T13:36:00.302Z,29.50
2019-06-27T13:38:30.854Z,29.50
2019-06-27T13:41:02.580Z,29.60
2019-06-27T13:43:33.174Z,29.70
2019-06-27T13:46:03.464Z,29.80
2019-06-27T13:48:33.893Z,29.90
2019-06-27T13:51:04.289Z,29.80
2019-06-27T13:53:34.758Z,29.90
2019-06-27T13:56:06.713Z,30.00
2019-06-27T13:58:36.927Z,30.00
2019-06-27T14:01:10.808Z,30.00
2019-06-27T14:03:49.187Z,29.90
2019-06-27T14:06:10.960Z,29.90
2019-06-27T14:08:41.334Z,30.10
2019-06-27T14:11:11.622Z,30.50
2019-06-27T14:13:41.835Z,30.70
2019-06-27T14:16:12.143Z,30.90
2019-06-27T14:18:42.346Z,30.90
2019-06-27T14:21:12.771Z,30.80
2019-06-27T14:23:43.201Z,30.70
2019-06-27T14:26:13.689Z,30.50
2019-06-27T14:28:43.982Z,30.40
2019-06-27T14:31:14.377Z,30.40
2019-06-27T14:33:44.776Z,30.20
2019-06-27T14:36:14.907Z,30.10
2019-06-27T14:38:45.056Z,30.20
2019-06-27T14:41:15.534Z,30.10
2019-06-27T14:43:46.067Z,30.00
2019-06-27T14:46:16.620Z,30.00
2019-06-27T14:48:47.333Z,29.90
2019-06-27T14:51:17.660Z,29.80
2019-06-27T14:53:48.545Z,30.00
2019-06-27T14:56:19.218Z,30.00
2019-06-27T14:58:49.638Z,30.10
2019-06-27T15:01:19.971Z,30.10
2019-06-27T15:03:50.207Z,30.00
2019-06-27T15:06:21.116Z,30.00
2019-06-27T15:08:51.532Z,30.00
2019-06-27T15:11:24.742Z,29.90
2019-06-27T15:13:55.174Z,29.90
2019-06-27T15:16:25.736Z,29.80
2019-06-27T15:18:57.884Z,29.80
2019-06-27T15:21:28.238Z,29.80
2019-06-27T15:23:58.657Z,29.80
2019-06-27T15:26:28.945Z,29.80
2019-06-27T15:28:59.791Z,29.80
2019-06-27T15:31:31.076Z,29.70
2019-06-27T15:34:02.224Z,29.60
2019-06-27T15:36:32.617Z,29.50
2019-06-27T15:39:03.417Z,29.40
2019-06-27T15:41:33.649Z,29.40
2019-06-27T15:44:03.913Z,29.40
2019-06-27T15:46:34.395Z,29.40
2019-06-27T15:49:05.180Z,29.50
2019-06-27T15:51:35.392Z,29.80
2019-06-27T15:54:05.631Z,30.10
2019-06-27T15:56:36.149Z,30.40
2019-06-27T15:59:06.425Z,30.60
2019-06-27T16:01:37.012Z,30.80
2019-06-27T16:04:07.777Z,30.90
2019-06-27T16:06:38.243Z,31.10
2019-06-27T16:09:09.332Z,31.20
2019-06-27T16:11:39.819Z,31.30
2019-06-27T16:14:10.503Z,31.30
2019-06-27T16:16:41.139Z,31.30
2019-06-27T16:19:11.402Z,31.20
2019-06-27T16:21:41.805Z,31.10
2019-06-27T16:24:12.226Z,31.00
2019-06-27T16:26:42.623Z,30.70
2019-06-27T16:29:13.035Z,30.60
2019-06-27T16:31:43.595Z,30.50
2019-06-27T16:34:13.915Z,30.40
2019-06-27T16:36:44.239Z,30.20
2019-06-27T16:39:14.531Z,30.10
2019-06-27T16:41:44.780Z,30.10
2019-06-27T16:44:15.417Z,30.00
2019-06-27T16:46:45.890Z,29.90
2019-06-27T16:49:16.708Z,29.90
2019-06-27T16:51:47.074Z,29.80
2019-06-27T16:54:17.586Z,29.70
2019-06-27T16:56:48.071Z,29.60
2019-06-27T16:59:18.321Z,29.40
2019-06-27T17:01:48.595Z,29.30
2019-06-27T17:04:19.395Z,29.10
2019-06-27T17:06:49.696Z,28.90
2019-06-27T17:09:20.015Z,28.70
2019-06-27T17:11:50.341Z,28.60
2019-06-27T17:14:22.111Z,28.50
2019-06-27T17:16:53.066Z,28.40
2019-06-27T17:19:23.705Z,28.30
2019-06-27T17:21:53.868Z,28.30
2019-06-27T17:24:24.128Z,28.20
2019-06-27T17:26:54.614Z,28.10
2019-06-27T17:29:24.923Z,28.10
2019-06-27T17:31:55.203Z,28.00
2019-06-27T17:34:25.542Z,28.00
2019-06-27T17:36:57.980Z,28.00
2019-06-27T17:39:27.790Z,28.00
2019-06-27T17:41:58.147Z,27.90
2019-06-27T17:44:28.411Z,27.90
2019-06-27T17:46:58.670Z,27.80
2019-06-27T17:49:28.872Z,27.70
2019-06-27T17:51:59.208Z,27.60
2019-06-27T17:54:30.429Z,27.60
2019-06-27T17:57:00.924Z,27.60
2019-06-27T17:59:31.090Z,27.50
2019-06-27T18:02:01.939Z,27.50
2019-06-27T18:04:32.320Z,27.50
2019-06-27T18:07:13.529Z,27.40
2019-06-27T18:09:35.413Z,27.40
2019-06-27T18:12:05.898Z,27.40
2019-06-27T18:14:36.308Z,27.40
2019-06-27T18:17:07.164Z,27.40
2019-06-27T18:19:38.689Z,27.40
2019-06-27T18:22:09.000Z,27.40
2019-06-27T18:24:41.682Z,27.40
2019-06-27T18:27:11.315Z,27.40
2019-06-27T18:29:41.839Z,27.40
2019-06-27T18:32:12.561Z,27.40
2019-06-27T18:34:43.118Z,27.40
2019-06-27T18:37:28.537Z,27.40
2019-06-27T18:39:45.588Z,27.40
2019-06-27T18:42:15.949Z,27.40
2019-06-27T18:44:47.228Z,27.30
2019-06-27T18:47:17.598Z,27.30
2019-06-27T18:49:48.255Z,27.30
2019-06-27T18:52:18.616Z,27.20
2019-06-27T18:54:49.040Z,27.20
2019-06-27T18:57:19.510Z,27.20
2019-06-27T18:59:53.424Z,27.10
2019-06-27T19:02:21.896Z,27.10
2019-06-27T19:04:52.143Z,27.00
2019-06-27T19:07:22.902Z,27.00
2019-06-27T19:09:53.249Z,26.90
2019-06-27T19:12:23.699Z,26.90
2019-06-27T19:14:54.136Z,26.80
2019-06-27T19:17:26.746Z,26.70
2019-06-27T19:19:59.791Z,26.70
2019-06-27T19:22:49.436Z,26.60
2019-06-27T19:25:27.615Z,26.50
2019-06-27T19:27:58.194Z,26.50
2019-06-27T19:30:28.621Z,26.40
2019-06-27T19:32:59.559Z,26.40
2019-06-27T19:35:30.207Z,26.40
2019-06-27T19:38:02.543Z,26.30
2019-06-27T19:40:32.992Z,26.20
2019-06-27T19:43:03.636Z,26.10
2019-06-27T19:45:34.118Z,26.10
2019-06-27T19:48:04.760Z,26.00
2019-06-27T19:50:35.593Z,26.00
2019-06-27T19:53:06.300Z,25.90
2019-06-27T19:55:37.643Z,25.90
2019-06-27T19:58:08.672Z,25.80
2019-06-27T20:00:39.505Z,25.80
2019-06-27T20:03:10.244Z,25.80
2019-06-27T20:05:40.866Z,25.70
2019-06-27T20:08:19.015Z,25.70
2019-06-27T20:10:43.924Z,25.70
2019-06-27T20:13:14.383Z,25.60
2019-06-27T20:15:44.730Z,25.50
2019-06-27T20:18:16.033Z,25.60
2019-06-27T20:20:47.531Z,25.50
2019-06-27T20:23:18.009Z,25.40
2019-06-27T20:25:48.427Z,25.40
2019-06-27T20:28:18.989Z,25.40
2019-06-27T20:30:49.461Z,25.40
2019-06-27T20:33:20.923Z,25.30
2019-06-27T20:35:51.616Z,25.30
2019-06-27T20:38:34.294Z,25.30
2019-06-27T20:40:55.066Z,25.30
2019-06-27T20:43:26.316Z,25.30
2019-06-27T20:45:57.905Z,25.30
2019-06-27T20:48:28.441Z,25.20
2019-06-27T20:50:59.241Z,25.20
2019-06-27T20:53:29.752Z,25.20
2019-06-27T20:56:00.081Z,25.10
2019-06-27T20:58:30.705Z,25.10
2019-06-27T21:01:02.547Z,25.10
2019-06-27T21:03:35.154Z,25.10
2019-06-27T21:06:05.385Z,25.10
2019-06-27T21:08:50.319Z,25.00
2019-06-27T21:11:07.941Z,25.00
2019-06-27T21:13:38.232Z,25.00
2019-06-27T21:16:08.811Z,24.90
2019-06-27T21:18:41.315Z,24.90
2019-06-27T21:21:13.376Z,24.90
2019-06-27T21:23:45.500Z,24.80
2019-06-27T21:26:16.882Z,24.80
2019-06-27T21:28:47.231Z,24.80
2019-06-27T21:31:18.724Z,24.70
2019-06-27T21:33:49.000Z,24.70
2019-06-27T21:36:19.805Z,24.70
2019-06-27T21:39:03.607Z,24.70
2019-06-27T21:41:22.247Z,24.70
2019-06-27T21:43:52.396Z,24.60
2019-06-27T21:46:23.481Z,24.60
2019-06-27T21:48:53.902Z,24.70
2019-06-27T21:51:24.339Z,24.60
2019-06-27T21:53:54.767Z,24.60
2019-06-27T21:56:25.191Z,24.60
2019-06-27T21:58:55.466Z,24.50
2019-06-27T22:01:26.239Z,24.60
2019-06-27T22:03:56.494Z,24.50
2019-06-27T22:06:26.931Z,24.50
2019-06-27T22:08:57.283Z,24.50
2019-06-27T22:11:27.681Z,24.50
2019-06-27T22:13:58.264Z,24.50
2019-06-27T22:16:28.565Z,24.50
2019-06-27T22:18:58.681Z,24.50
2019-06-27T22:21:29.310Z,24.40
2019-06-27T22:23:59.529Z,24.40
2019-06-27T22:26:30.115Z,24.40
2019-06-27T22:29:00.463Z,24.40
2019-06-27T22:31:36.749Z,24.40
2019-06-27T22:34:07.177Z,24.40
2019-06-27T22:36:37.568Z,24.40
2019-06-27T22:39:39.515Z,24.30
2019-06-27T22:42:14.752Z,24.30
2019-06-27T22:45:02.832Z,24.30
2019-06-27T22:47:51.159Z,24.30
2019-06-27T22:50:40.699Z,24.30
2019-06-27T22:53:15.468Z,24.30
2019-06-27T22:55:46.075Z,24.30
2019-06-27T22:58:16.475Z,24.30
2019-06-27T23:00:46.710Z,24.30
2019-06-27T23:03:17.074Z,24.30
2019-06-27T23:05:48.637Z,24.20
2019-06-27T23:08:19.054Z,24.20
2019-06-27T23:10:49.654Z,24.20
2019-06-27T23:13:20.139Z,24.10
2019-06-27T23:15:50.866Z,24.20
2019-06-27T23:18:21.319Z,24.10
2019-06-27T23:20:51.662Z,24.20
2019-06-27T23:23:21.964Z,24.10
2019-06-27T23:25:53.852Z,24.10
2019-06-27T23:28:24.332Z,24.10
2019-06-27T23:30:54.996Z,24.10
2019-06-27T23:33:25.126Z,24.10
2019-06-27T23:35:55.355Z,24.10
2019-06-27T23:38:26.003Z,24.10
2019-06-27T23:40:56.294Z,24.10
2019-06-27T23:43:27.075Z,24.10
2019-06-27T23:45:59.695Z,24.10
2019-06-27T23:48:29.959Z,24.10
2019-06-27T23:51:00.092Z,24.10
2019-06-27T23:53:30.404Z,24.10
2019-06-27T23:56:00.674Z,24.00
2019-06-27T23:58:31.050Z,24.10
